Time;durP1;ratioP1;P1;durP2;ratioP2;P2;SDS_P1;SDS_P2;PMS_P1;PMS_P2;Temp;Humidity;BMP_temperature;BMP_pressure;BME280_temperature;BME280_humidity;BME280_pressure;Samples;Min_cycle;Max_cycle;Signal;HPM_P1;HPM_P2
2022/09/21 00:01:11;;;;;;;35.53;16.20;;;;;;;5.67;93.50;96330.22;4977736;28;21407;-84
2022/09/21 00:03:36;;;;;;;35.30;15.87;;;;;;;5.65;93.26;96331.22;4985115;28;20259;-84
2022/09/21 00:06:07;;;;;;;34.67;16.57;;;;;;;5.64;93.37;96332.16;4993102;28;20207;-84
2022/09/21 00:08:33;;;;;;;46.20;20.13;;;;;;;5.63;93.03;96333.06;4973972;28;20189;-84
2022/09/21 00:10:59;;;;;;;31.43;17.17;;;;;;;5.65;93.10;96326.91;4976983;28;20726;-84
2022/09/21 00:13:27;;;;;;;22.03;12.90;;;;;;;5.71;93.32;96328.25;5004918;28;20187;-84
2022/09/21 00:15:53;;;;;;;22.53;13.10;;;;;;;5.72;92.70;96332.47;4983626;28;20208;-84
2022/09/21 00:18:18;;;;;;;22.50;13.50;;;;;;;5.76;92.79;96328.81;5001011;28;20189;-84
2022/09/21 00:20:43;;;;;;;29.70;17.60;;;;;;;5.70;92.67;96334.34;5001142;28;20680;-84
2022/09/21 00:23:09;;;;;;;23.77;15.50;;;;;;;5.65;92.96;96332.06;4989669;28;20204;-84
2022/09/21 00:25:34;;;;;;;22.33;12.37;;;;;;;5.66;93.04;96328.56;4990834;28;20239;-84
2022/09/21 00:28:00;;;;;;;12.17;7.17;;;;;;;5.59;93.38;96329.88;4988030;28;20572;-84
2022/09/21 00:30:25;;;;;;;12.60;7.83;;;;;;;5.58;93.06;96327.41;4992137;28;20183;-84
2022/09/21 00:32:52;;;;;;;13.03;7.30;;;;;;;5.56;93.07;96326.66;4991394;28;20620;-84
2022/09/21 00:35:17;;;;;;;11.17;5.87;;;;;;;5.54;93.25;96329.34;4994891;28;20768;-84
2022/09/21 00:37:42;;;;;;;7.40;4.90;;;;;;;5.53;93.44;96326.84;4990235;28;20251;-85
2022/09/21 00:40:08;;;;;;;7.97;4.23;;;;;;;5.52;93.57;96332.94;4993043;28;20188;-84
2022/09/21 00:42:33;;;;;;;5.83;4.20;;;;;;;5.52;93.28;96328.63;4978071;28;20234;-85
2022/09/21 00:44:59;;;;;;;4.97;4.40;;;;;;;5.54;93.42;96326.75;4983071;28;20230;-84
2022/09/21 00:47:27;;;;;;;6.07;3.90;;;;;;;5.56;93.07;96330.06;4986440;28;20222;-84
2022/09/21 00:49:55;;;;;;;7.53;4.27;;;;;;;5.53;93.01;96332.84;4983822;28;20220;-85
2022/09/21 00:52:24;;;;;;;5.00;3.63;;;;;;;5.45;93.09;96329.91;4986844;28;20633;-84
2022/09/21 00:54:55;;;;;;;4.73;3.60;;;;;;;5.42;93.61;96326.72;4991952;28;20188;-84
2022/09/21 00:57:23;;;;;;;5.80;4.13;;;;;;;5.37;93.61;96314.13;4998437;28;20303;-84
2022/09/21 00:59:50;;;;;;;6.03;3.30;;;;;;;5.37;93.68;96322.66;4991401;28;20185;-84
2022/09/21 01:02:17;;;;;;;7.47;3.73;;;;;;;5.40;93.94;96321.69;4981050;28;20204;-84
2022/09/21 01:04:43;;;;;;;6.70;4.03;;;;;;;5.39;93.85;96325.19;4989536;28;20203;-85
2022/09/21 01:07:13;;;;;;;5.20;3.63;;;;;;;5.38;93.79;96318.34;4979256;28;20235;-84
2022/09/21 01:09:39;;;;;;;6.07;3.23;;;;;;;5.31;93.91;96323.09;4983176;28;20184;-84
2022/09/21 01:12:31;;;;;;;5.80;3.63;;;;;;;5.33;93.86;96320.41;5006476;28;20263;-83
2022/09/21 01:15:08;;;;;;;7.00;3.37;;;;;;;5.27;94.30;96313.06;4983985;28;20223;-84
2022/09/21 01:17:41;;;;;;;4.70;3.40;;;;;;;5.27;94.20;96316.44;4986041;28;20184;-84
2022/09/21 01:20:24;;;;;;;6.00;3.53;;;;;;;5.28;94.02;96318.09;4992788;28;20230;-83
2022/09/21 01:23:14;;;;;;;6.83;3.23;;;;;;;5.22;93.98;96317.69;5004983;28;20299;-84
2022/09/21 01:26:02;;;;;;;5.17;3.27;;;;;;;5.25;93.75;96313.16;4989757;28;20212;-83
2022/09/21 01:28:56;;;;;;;5.87;3.27;;;;;;;5.21;93.50;96319.44;4986151;28;20187;-84
2022/09/21 01:31:26;;;;;;;7.03;3.40;;;;;;;5.19;93.67;96312.69;4991071;28;20205;-84
2022/09/21 01:33:54;;;;;;;5.13;3.17;;;;;;;5.17;93.84;96317.97;4998474;28;20195;-84
2022/09/21 01:36:23;;;;;;;3.83;2.80;;;;;;;5.19;94.33;96318.69;5000060;28;20212;-84
2022/09/21 01:38:51;;;;;;;5.30;3.37;;;;;;;5.21;94.34;96322.00;4991077;28;20189;-84
2022/09/21 01:41:21;;;;;;;4.60;3.13;;;;;;;5.21;94.96;96321.16;4991631;28;20188;-85
2022/09/21 01:43:52;;;;;;;5.93;3.07;;;;;;;5.21;95.00;96324.59;4990781;28;20208;-84
2022/09/21 01:46:19;;;;;;;4.70;3.13;;;;;;;5.23;95.31;96322.72;4982815;28;20280;-85
2022/09/21 01:48:49;;;;;;;3.07;2.70;;;;;;;5.25;94.99;96322.63;4998371;28;20555;-84
2022/09/21 01:51:17;;;;;;;3.30;3.00;;;;;;;5.23;94.89;96325.31;4989883;28;20287;-84
2022/09/21 01:53:59;;;;;;;4.70;3.40;;;;;;;5.21;94.87;96326.31;4996714;28;20212;-85
2022/09/21 01:56:35;;;;;;;6.23;3.10;;;;;;;5.19;95.14;96333.31;4987185;28;20230;-84
2022/09/21 01:59:06;;;;;;;5.90;3.47;;;;;;;5.14;95.18;96330.19;4985071;28;20561;-84
2022/09/21 02:01:37;;;;;;;3.60;2.83;;;;;;;5.14;94.48;96323.31;5001483;28;20196;-84
2022/09/21 02:04:08;;;;;;;7.27;3.40;;;;;;;5.15;94.80;96327.53;4973864;28;20250;-84
2022/09/21 02:06:33;;;;;;;5.27;3.20;;;;;;;5.11;94.47;96328.63;4974468;28;20216;-83
2022/09/21 02:08:58;;;;;;;3.10;2.63;;;;;;;5.14;94.49;96325.88;4990962;28;20192;-84
2022/09/21 02:11:24;;;;;;;3.47;2.63;;;;;;;5.14;94.25;96325.06;4989229;28;20574;-84
2022/09/21 02:13:51;;;;;;;3.77;2.50;;;;;;;5.11;94.44;96326.88;4982985;28;20203;-84
2022/09/21 02:16:35;;;;;;;4.17;2.83;;;;;;;5.13;94.28;96324.22;4983431;28;20670;-84
2022/09/21 02:19:13;;;;;;;4.67;2.83;;;;;;;5.15;94.29;96321.56;4981277;28;20184;-84
2022/09/21 02:21:53;;;;;;;4.13;3.00;;;;;;;5.19;93.63;96331.56;4993327;28;20193;-83
2022/09/21 02:24:26;;;;;;;2.77;2.57;;;;;;;5.17;94.63;96315.38;4987398;28;20230;-84
2022/09/21 02:27:27;;;;;;;8.20;3.17;;;;;;;5.20;93.56;96312.59;4982945;28;20218;-84
2022/09/21 02:30:12;;;;;;;6.67;3.30;;;;;;;5.15;93.93;96316.41;4996044;28;20577;-84
2022/09/21 02:32:59;;;;;;;4.87;2.93;;;;;;;5.12;94.41;96314.81;4971190;28;20189;-83
2022/09/21 02:35:35;;;;;;;5.00;2.90;;;;;;;5.11;94.33;96308.84;4995883;28;20239;-84
2022/09/21 02:38:18;;;;;;;5.30;3.10;;;;;;;5.09;94.26;96307.31;4985368;28;20184;-83
2022/09/21 02:40:52;;;;;;;5.23;3.50;;;;;;;5.05;94.38;96308.44;4989075;28;20180;-84
2022/09/21 02:43:26;;;;;;;3.93;2.93;;;;;;;5.07;94.75;96309.16;4987242;28;20210;-84
2022/09/21 02:46:03;;;;;;;6.00;3.77;;;;;;;5.03;94.59;96307.69;5008202;28;20693;-84
2022/09/21 02:48:35;;;;;;;3.50;3.20;;;;;;;5.04;94.48;96306.78;4990122;28;20238;-83
2022/09/21 02:51:09;;;;;;;5.73;3.30;;;;;;;4.99;94.96;96304.47;4975529;28;20179;-84
2022/09/21 02:53:35;;;;;;;4.97;3.20;;;;;;;4.99;94.61;96307.06;4992288;28;20173;-84
2022/09/21 02:56:05;;;;;;;4.47;2.73;;;;;;;4.95;94.69;96307.34;5012851;28;20202;-85
2022/09/21 02:58:37;;;;;;;3.43;3.13;;;;;;;4.95;94.71;96302.19;5024057;28;20221;-85
2022/09/21 03:01:05;;;;;;;4.90;3.30;;;;;;;4.92;94.69;96310.09;5009281;28;20374;-85
2022/09/21 03:03:30;;;;;;;3.30;2.97;;;;;;;4.92;94.04;96295.47;5016175;28;20263;-85
2022/09/21 03:05:56;;;;;;;6.87;3.30;;;;;;;4.92;94.94;96305.78;5007407;28;20215;-84
2022/09/21 03:08:21;;;;;;;6.57;3.13;;;;;;;4.91;95.36;96296.41;4989191;28;20577;-84
2022/09/21 03:10:49;;;;;;;7.93;3.53;;;;;;;4.89;95.49;96303.41;4990540;28;20518;-84
2022/09/21 03:13:15;;;;;;;5.07;3.60;;;;;;;4.84;95.31;96298.53;4972272;28;20242;-84
2022/09/21 03:15:40;;;;;;;5.03;3.47;;;;;;;4.81;95.27;96298.72;4988339;28;20708;-84
2022/09/21 03:18:10;;;;;;;8.77;3.70;;;;;;;4.78;95.58;96298.91;4982159;28;20237;-84
2022/09/21 03:20:36;;;;;;;5.07;3.20;;;;;;;4.76;95.37;96300.72;4979948;28;20184;-84
2022/09/21 03:23:01;;;;;;;3.40;2.77;;;;;;;4.71;95.59;96299.38;4987985;28;20216;-84
2022/09/21 03:25:28;;;;;;;4.07;3.20;;;;;;;4.71;95.13;96305.34;4988033;28;20291;-84
2022/09/21 03:27:53;;;;;;;4.50;3.70;;;;;;;4.71;95.47;96301.94;4984940;28;20191;-84
2022/09/21 03:30:23;;;;;;;5.97;3.07;;;;;;;4.71;95.47;96304.53;5006531;28;20277;-84
2022/09/21 03:32:50;;;;;;;6.80;3.73;;;;;;;4.71;96.04;96307.91;4990052;28;20185;-84
2022/09/21 03:35:16;;;;;;;5.43;3.13;;;;;;;4.71;95.85;96302.78;4994434;28;20185;-84
2022/09/21 03:37:41;;;;;;;6.50;3.37;;;;;;;4.67;96.40;96309.00;5013355;28;20712;-85
2022/09/21 03:40:07;;;;;;;6.80;3.20;;;;;;;4.61;95.89;96311.16;4998827;28;20192;-84
2022/09/21 03:42:33;;;;;;;7.30;3.90;;;;;;;4.59;96.26;96313.78;4997684;28;20200;-85
2022/09/21 03:44:58;;;;;;;6.43;3.57;;;;;;;4.57;96.48;96318.22;4988538;28;20192;-85
2022/09/21 03:47:23;;;;;;;4.13;3.70;;;;;;;4.56;96.42;96324.28;4994614;28;20212;-85
2022/09/21 03:49:49;;;;;;;4.97;3.47;;;;;;;4.55;96.47;96322.63;4996578;28;20222;-84
2022/09/21 03:52:14;;;;;;;6.90;3.50;;;;;;;4.56;96.33;96316.56;4994502;28;20180;-85
2022/09/21 03:54:39;;;;;;;5.40;4.10;;;;;;;4.55;96.18;96320.88;4996286;28;20246;-84
2022/09/21 03:57:05;;;;;;;6.23;3.47;;;;;;;4.60;96.06;96320.63;4994416;28;20635;-83
2022/09/21 03:59:30;;;;;;;7.70;3.40;;;;;;;4.60;95.98;96314.66;4994447;28;20191;-84
2022/09/21 04:01:55;;;;;;;5.47;3.73;;;;;;;4.63;96.22;96315.28;4994843;28;20183;-83
2022/09/21 04:04:21;;;;;;;7.40;3.73;;;;;;;4.57;95.77;96315.63;5007488;28;20200;-84
2022/09/21 04:06:46;;;;;;;5.13;3.60;;;;;;;4.54;96.07;96320.97;4996650;28;20817;-85
2022/09/21 04:09:11;;;;;;;4.43;3.40;;;;;;;4.54;96.19;96324.38;4997985;28;20191;-82
2022/09/21 04:11:38;;;;;;;5.00;3.70;;;;;;;4.49;96.06;96318.66;4994411;28;20188;-83
2022/09/21 04:14:04;;;;;;;5.50;3.63;;;;;;;4.47;96.67;96324.81;4992594;28;20239;-83
2022/09/21 04:16:29;;;;;;;7.67;4.10;;;;;;;4.47;96.44;96323.06;4993533;28;20556;-84
2022/09/21 04:18:55;;;;;;;9.60;3.67;;;;;;;4.47;96.82;96319.69;4994242;28;20211;-84
2022/09/21 04:21:23;;;;;;;5.73;3.80;;;;;;;4.44;96.54;96320.69;4993575;28;20180;-81
2022/09/21 04:23:48;;;;;;;5.30;3.70;;;;;;;4.43;96.58;96321.63;4993590;28;20277;-82
2022/09/21 04:26:23;;;;;;;7.60;4.50;;;;;;;4.45;96.90;96326.66;4991634;28;20620;-83
2022/09/21 04:28:48;;;;;;;7.43;3.97;;;;;;;4.41;96.97;96333.72;5001429;28;20914;-82
2022/09/21 04:31:14;;;;;;;5.67;4.10;;;;;;;4.42;96.86;96325.13;4987281;28;20234;-84
2022/09/21 04:33:40;;;;;;;5.10;4.20;;;;;;;4.39;96.71;96329.59;4982190;28;20184;-82
2022/09/21 04:36:05;;;;;;;5.97;4.57;;;;;;;4.40;96.88;96333.81;4991145;28;20236;-82
2022/09/21 04:38:31;;;;;;;5.83;3.70;;;;;;;4.42;96.60;96332.84;4991402;28;20262;-83
2022/09/21 04:40:57;;;;;;;4.90;4.20;;;;;;;4.46;97.00;96328.31;4993098;28;20200;-83
2022/09/21 04:43:22;;;;;;;8.00;4.60;;;;;;;4.45;97.32;96335.22;4992785;28;20204;-83
2022/09/21 04:45:47;;;;;;;6.97;4.70;;;;;;;4.40;97.10;96334.66;5000115;28;20287;-84
2022/09/21 04:48:13;;;;;;;5.80;4.20;;;;;;;4.42;97.25;96337.97;4991098;28;20198;-84
2022/09/21 04:50:38;;;;;;;6.53;4.90;;;;;;;4.37;97.52;96342.56;4992464;28;20657;-86
2022/09/21 04:53:04;;;;;;;6.97;4.50;;;;;;;4.35;97.41;96341.81;4990759;28;20267;-88
2022/09/21 04:55:29;;;;;;;6.37;4.70;;;;;;;4.35;97.35;96344.38;4993911;28;20870;-86
2022/09/21 04:57:55;;;;;;;8.13;4.57;;;;;;;4.35;97.13;96338.41;4994148;28;20199;-85
2022/09/21 05:00:20;;;;;;;5.73;3.70;;;;;;;4.31;97.00;96345.47;4987818;28;20188;-85
2022/09/21 05:02:46;;;;;;;4.87;4.03;;;;;;;4.35;97.45;96343.56;4994295;28;20262;-84
2022/09/21 05:05:12;;;;;;;12.63;5.00;;;;;;;4.31;96.23;96345.47;4977694;28;20192;-83
2022/09/21 05:07:38;;;;;;;9.97;4.57;;;;;;;4.33;96.42;96345.38;4990248;28;20196;-84
2022/09/21 05:10:03;;;;;;;7.07;3.97;;;;;;;4.32;96.59;96346.28;4997419;28;20555;-84
2022/09/21 05:12:33;;;;;;;6.97;4.57;;;;;;;4.33;96.64;96351.38;4984913;28;20199;-84
2022/09/21 05:14:59;;;;;;;9.43;4.47;;;;;;;4.37;96.30;96352.84;4984787;28;20206;-84
2022/09/21 05:17:24;;;;;;;6.47;4.50;;;;;;;4.44;96.81;96350.75;4990739;28;20207;-84
2022/09/21 05:19:50;;;;;;;7.80;4.60;;;;;;;4.46;95.98;96348.91;4985673;28;20192;-83
2022/09/21 05:22:15;;;;;;;5.20;4.67;;;;;;;4.47;95.91;96353.94;4974193;28;20739;-83
2022/09/21 05:24:41;;;;;;;8.20;4.13;;;;;;;4.50;95.57;96351.19;4992362;28;20196;-83
2022/09/21 05:27:06;;;;;;;6.40;4.67;;;;;;;4.55;95.70;96350.91;4987181;28;20196;-83
2022/09/21 05:29:32;;;;;;;7.60;5.27;;;;;;;4.59;95.67;96356.69;5011687;28;20169;-83
2022/09/21 05:32:24;;;;;;;5.83;4.00;;;;;;;4.64;95.10;96347.81;4995897;28;20207;-83
2022/09/21 05:34:56;;;;;;;7.63;4.67;;;;;;;4.70;95.01;96357.72;4976173;28;20279;-84
2022/09/21 05:37:30;;;;;;;7.57;4.73;;;;;;;4.71;95.05;96356.81;4990491;28;20270;-84
2022/09/21 05:39:56;;;;;;;6.33;5.07;;;;;;;4.80;94.86;96358.00;4992853;28;20260;-83
2022/09/21 05:42:21;;;;;;;6.40;4.83;;;;;;;4.74;95.18;96350.66;4993810;28;20228;-83
2022/09/21 05:44:48;;;;;;;8.17;5.97;;;;;;;4.91;95.82;96354.78;4991118;28;20549;-84
2022/09/21 05:47:23;;;;;;;9.17;5.30;;;;;;;5.08;95.25;96357.97;4989717;28;20207;-84
2022/09/21 05:49:55;;;;;;;11.87;6.10;;;;;;;5.23;95.49;96348.47;4990064;28;20191;-82
2022/09/21 05:52:38;;;;;;;14.23;6.00;;;;;;;5.37;96.99;96363.88;4990363;28;20202;-83
2022/09/21 05:55:31;;;;;;;12.17;6.07;;;;;;;5.60;96.68;96374.50;4972682;28;20218;-83
2022/09/21 05:58:33;;;;;;;9.53;6.03;;;;;;;5.67;96.14;96368.03;4991713;28;20187;-84
2022/09/21 06:01:13;;;;;;;9.07;5.73;;;;;;;5.85;96.08;96364.28;4943362;28;20203;-83
2022/09/21 06:03:39;;;;;;;9.33;5.80;;;;;;;5.94;96.09;96366.31;4992804;28;20290;-84
2022/09/21 06:06:07;;;;;;;11.53;6.40;;;;;;;6.06;95.50;96369.81;4983992;28;20266;-84
2022/09/21 06:08:32;;;;;;;8.73;6.20;;;;;;;6.10;95.58;96379.03;4974050;28;20190;-83
2022/09/21 06:10:57;;;;;;;9.77;6.63;;;;;;;6.14;95.26;96375.31;4992098;28;20187;-84
2022/09/21 06:13:23;;;;;;;12.00;6.50;;;;;;;6.19;95.45;96378.44;4990925;28;20196;-84
2022/09/21 06:15:48;;;;;;;13.40;6.57;;;;;;;6.30;95.13;96382.06;4990933;28;20212;-84
2022/09/21 06:18:14;;;;;;;8.37;6.40;;;;;;;6.36;95.24;96384.22;4987967;28;20203;-85
2022/09/21 06:20:40;;;;;;;10.70;6.57;;;;;;;6.46;94.30;96380.13;4976548;28;20196;-83
2022/09/21 06:23:07;;;;;;;9.23;5.57;;;;;;;6.54;94.20;96388.19;4976365;28;20214;-83
2022/09/21 06:25:32;;;;;;;11.37;5.63;;;;;;;6.66;93.64;96389.94;4991246;28;20208;-84
2022/09/21 06:28:05;;;;;;;8.17;5.57;;;;;;;6.76;93.11;96382.38;5002361;28;20568;-83
2022/09/21 06:30:33;;;;;;;7.07;5.47;;;;;;;6.85;92.79;96392.09;5003541;28;20180;-84
2022/09/21 06:33:00;;;;;;;9.03;5.50;;;;;;;6.99;92.36;96393.75;4993381;28;20207;-84
2022/09/21 06:35:26;;;;;;;7.07;4.83;;;;;;;7.08;91.82;96388.78;4988178;28;20280;-83
2022/09/21 06:37:51;;;;;;;8.77;4.67;;;;;;;7.08;90.89;96382.78;4991609;28;20242;-84
2022/09/21 06:40:16;;;;;;;7.10;5.07;;;;;;;7.19;91.05;96385.44;5000008;28;20226;-83
2022/09/21 06:42:42;;;;;;;10.57;5.33;;;;;;;7.26;90.73;96385.84;4987069;28;20207;-82
2022/09/21 06:45:07;;;;;;;10.30;5.33;;;;;;;7.31;91.03;96389.75;4983344;28;20197;-84
2022/09/21 06:47:33;;;;;;;7.53;5.00;;;;;;;7.44;90.05;96388.91;4993372;28;20253;-82
2022/09/21 06:49:58;;;;;;;9.57;4.77;;;;;;;7.52;89.87;96382.25;4989752;28;20203;-83
2022/09/21 06:52:23;;;;;;;7.60;4.77;;;;;;;7.63;89.76;96390.06;5001896;28;20184;-83
2022/09/21 06:54:49;;;;;;;10.57;5.03;;;;;;;7.73;88.84;96392.00;4988325;28;20183;-83
2022/09/21 06:57:14;;;;;;;9.00;5.20;;;;;;;7.74;88.49;96393.66;4989176;28;20254;-82
2022/09/21 06:59:39;;;;;;;12.13;4.27;;;;;;;7.82;88.33;96393.94;4988950;28;20678;-83
2022/09/21 07:02:05;;;;;;;8.47;4.70;;;;;;;7.88;88.55;96402.09;4990935;28;20211;-83
2022/09/21 07:04:31;;;;;;;7.93;5.63;;;;;;;8.04;87.48;96391.47;4992100;28;20231;-83
2022/09/21 07:06:56;;;;;;;6.70;4.13;;;;;;;8.11;86.76;96400.41;4988546;28;20212;-84
2022/09/21 07:09:21;;;;;;;8.87;4.23;;;;;;;8.20;86.16;96391.16;4989553;28;20233;-83
2022/09/21 07:11:47;;;;;;;5.83;3.80;;;;;;;8.35;85.02;96399.59;5001362;28;20196;-83
2022/09/21 07:14:13;;;;;;;5.13;3.60;;;;;;;8.41;84.94;96393.97;4989786;28;20222;-83
2022/09/21 07:16:39;;;;;;;4.43;3.37;;;;;;;8.49;85.27;96399.41;4973609;28;20239;-83
2022/09/21 07:19:05;;;;;;;10.37;3.53;;;;;;;8.49;84.90;96399.41;4978313;28;20613;-85
2022/09/21 07:21:30;;;;;;;8.53;3.60;;;;;;;8.60;84.13;96396.81;4987794;28;20288;-83
2022/09/21 07:23:58;;;;;;;4.87;3.20;;;;;;;8.63;83.22;96406.13;4989017;28;20682;-83
2022/09/21 07:26:23;;;;;;;7.40;3.33;;;;;;;8.71;83.48;96398.59;4988176;28;20213;-84
2022/09/21 07:28:48;;;;;;;6.60;2.77;;;;;;;8.75;83.37;96395.69;4986513;28;20195;-82
2022/09/21 07:31:15;;;;;;;7.53;4.50;;;;;;;8.81;82.18;96404.75;4988219;28;20223;-84
2022/09/21 07:33:41;;;;;;;6.23;3.30;;;;;;;8.85;81.65;96406.16;4980417;28;20184;-83
2022/09/21 07:36:10;;;;;;;4.33;2.60;;;;;;;8.95;81.63;96407.13;4974622;28;20616;-84
2022/09/21 07:38:38;;;;;;;5.40;2.90;;;;;;;9.04;81.66;96408.19;4989494;28;20222;-84
2022/09/21 07:41:04;;;;;;;4.73;2.43;;;;;;;9.04;80.56;96403.84;4997823;28;20188;-84
2022/09/21 07:43:29;;;;;;;5.17;2.90;;;;;;;9.07;80.53;96416.53;4981208;28;20207;-84
2022/09/21 07:45:54;;;;;;;4.07;2.27;;;;;;;9.19;80.18;96416.53;4986739;28;20219;-86
2022/09/21 07:48:21;;;;;;;6.33;3.03;;;;;;;9.22;80.90;96419.72;4989415;28;20199;-84
2022/09/21 07:50:48;;;;;;;7.20;3.07;;;;;;;9.28;80.93;96414.09;4991238;28;20574;-86
2022/09/21 07:53:16;;;;;;;6.27;3.13;;;;;;;9.22;80.14;96414.56;4988511;28;20268;-85
2022/09/21 07:55:42;;;;;;;5.30;3.33;;;;;;;9.19;79.34;96409.63;5005622;28;20235;-87
2022/09/21 08:00:51;;;;;;;5.03;3.60;;;;;;;9.42;79.24;96415.59;5008534;28;20210;-84
2022/09/21 08:03:16;;;;;;;5.47;3.17;;;;;;;9.38;78.88;96413.38;4976379;28;20211;-83
2022/09/21 08:05:42;;;;;;;5.47;3.40;;;;;;;9.43;79.00;96408.63;4992829;28;20211;-85
2022/09/21 08:08:07;;;;;;;4.27;3.07;;;;;;;9.54;78.57;96406.03;4974855;28;20556;-84
2022/09/21 08:10:34;;;;;;;5.37;3.20;;;;;;;9.58;78.01;96417.81;4973400;28;20267;-83
2022/09/21 08:13:00;;;;;;;5.37;2.97;;;;;;;9.63;77.89;96416.53;4990197;28;20227;-84
2022/09/21 08:15:26;;;;;;;6.47;3.27;;;;;;;9.63;77.70;96418.31;4974131;28;20239;-79
2022/09/21 08:17:52;;;;;;;10.50;3.43;;;;;;;9.55;78.07;96418.91;5009436;28;20306;-82
2022/09/21 08:20:17;;;;;;;7.50;3.23;;;;;;;9.77;79.04;96420.59;5005882;28;20197;-83
2022/09/21 08:22:42;;;;;;;6.70;3.30;;;;;;;9.80;77.54;96420.34;4994771;28;20587;-82
2022/09/21 08:25:09;;;;;;;11.33;3.90;;;;;;;9.82;78.23;96415.91;4994774;28;20265;-82
2022/09/21 08:27:35;;;;;;;8.93;3.23;;;;;;;9.88;78.96;96417.97;4995505;28;20188;-82
2022/09/21 08:30:01;;;;;;;9.07;3.80;;;;;;;9.92;77.82;96414.22;4995888;28;20564;-83
2022/09/21 08:32:27;;;;;;;5.17;3.10;;;;;;;9.98;77.01;96410.28;4993350;28;20211;-83
2022/09/21 08:34:52;;;;;;;7.37;3.40;;;;;;;9.89;77.17;96422.25;4993132;28;20203;-83
2022/09/21 08:37:20;;;;;;;7.40;3.57;;;;;;;10.00;76.98;96421.38;5003032;28;20216;-82
2022/09/21 08:39:46;;;;;;;6.83;3.83;;;;;;;10.16;77.26;96431.38;5018318;28;20603;-82
2022/09/21 08:42:27;;;;;;;6.43;3.40;;;;;;;10.23;76.12;96432.53;5003532;28;20192;-82
2022/09/21 08:44:58;;;;;;;7.13;3.70;;;;;;;10.31;76.22;96429.31;5029439;28;20299;-82
2022/09/21 08:47:35;;;;;;;8.50;3.70;;;;;;;10.26;75.48;96432.31;4997246;28;20267;-81
2022/09/21 08:50:02;;;;;;;5.70;3.23;;;;;;;10.53;74.23;96425.81;4993891;28;20279;-83
2022/09/21 08:52:28;;;;;;;8.97;3.30;;;;;;;10.68;73.66;96427.94;4983455;28;20180;-82
2022/09/21 08:54:56;;;;;;;4.43;2.83;;;;;;;10.95;74.34;96421.41;4991470;28;20530;-82
2022/09/21 08:57:27;;;;;;;6.13;3.33;;;;;;;10.91;71.92;96426.06;4984710;28;20210;-82
2022/09/21 08:59:52;;;;;;;5.37;3.47;;;;;;;11.13;72.99;96422.50;5001649;28;20184;-82
2022/09/21 09:02:38;;;;;;;4.63;3.40;;;;;;;11.21;73.63;96420.03;4992333;28;20246;-83
2022/09/21 09:05:09;;;;;;;5.73;3.10;;;;;;;11.19;73.33;96415.94;5004211;28;20215;-82
2022/09/21 09:07:50;;;;;;;4.90;3.03;;;;;;;11.45;71.26;96421.50;4983352;28;20187;-82
2022/09/21 09:10:37;;;;;;;6.20;3.33;;;;;;;11.43;71.03;96423.44;4988397;28;20176;-83
2022/09/21 09:13:33;;;;;;;6.07;2.80;;;;;;;11.52;70.01;96418.25;4986748;28;20275;-82
2022/09/21 09:16:20;;;;;;;4.53;2.83;;;;;;;11.49;70.77;96418.53;4990199;28;20207;-83
2022/09/21 09:18:52;;;;;;;4.87;2.70;;;;;;;11.61;68.93;96417.47;4996946;28;20192;-82
2022/09/21 09:21:22;;;;;;;5.23;2.10;;;;;;;11.66;68.05;96419.69;4995411;28;20189;-82
2022/09/21 09:23:53;;;;;;;6.27;1.80;;;;;;;11.67;68.65;96418.72;4989978;28;20220;-82
2022/09/21 09:26:41;;;;;;;4.73;1.97;;;;;;;11.95;67.03;96417.16;4989688;28;20204;-82
2022/09/21 09:29:15;;;;;;;7.10;2.60;;;;;;;11.98;67.76;96419.47;4991774;28;20211;-82
2022/09/21 09:31:41;;;;;;;3.20;1.53;;;;;;;12.09;66.54;96413.31;4988702;28;20176;-82
2022/09/21 09:34:21;;;;;;;3.23;1.50;;;;;;;11.94;66.75;96412.09;4975973;28;20254;-82
2022/09/21 09:36:51;;;;;;;4.50;1.70;;;;;;;11.77;65.24;96410.94;4993773;28;20200;-82
2022/09/21 09:39:16;;;;;;;4.03;1.60;;;;;;;11.50;65.25;96414.97;4992239;28;20543;-82
2022/09/21 09:41:45;;;;;;;6.83;1.77;;;;;;;11.58;65.82;96404.72;4991043;28;20218;-83
2022/09/21 09:44:10;;;;;;;1.87;1.30;;;;;;;11.44;65.34;96410.28;4984542;28;20214;-82
2022/09/21 09:46:50;;;;;;;5.37;1.77;;;;;;;11.40;65.98;96410.69;4998134;28;20203;-83
2022/09/21 09:49:19;;;;;;;5.57;1.93;;;;;;;11.52;66.57;96413.06;4988139;28;20499;-82
2022/09/21 09:51:45;;;;;;;5.20;2.30;;;;;;;11.60;65.71;96418.41;5002756;28;20248;-82
2022/09/21 09:54:13;;;;;;;3.40;1.50;;;;;;;11.70;64.21;96412.41;4993217;28;20172;-82
2022/09/21 09:56:41;;;;;;;8.50;3.27;;;;;;;11.85;64.75;96411.94;4974826;28;20319;-82
2022/09/21 09:59:13;;;;;;;4.80;2.53;;;;;;;11.81;64.08;96407.13;4989276;28;20359;-83
2022/09/21 10:01:45;;;;;;;3.17;1.40;;;;;;;11.71;63.82;96398.44;4999505;28;20288;-82
2022/09/21 10:04:16;;;;;;;2.73;1.80;;;;;;;11.59;63.23;96408.97;4988600;28;20680;-83
2022/09/21 10:06:42;;;;;;;4.23;1.70;;;;;;;11.39;64.81;96401.22;4973048;28;20214;-83
2022/09/21 10:09:32;;;;;;;3.30;1.53;;;;;;;11.59;64.90;96403.78;4983060;28;20274;-83
2022/09/21 10:12:14;;;;;;;4.60;1.80;;;;;;;11.78;63.31;96396.97;5003604;28;20279;-83
2022/09/21 10:14:47;;;;;;;5.03;1.87;;;;;;;11.94;62.67;96399.09;4998929;28;20190;-82
2022/09/21 10:17:15;;;;;;;2.30;1.50;;;;;;;12.09;63.79;96389.91;4993696;28;20727;-82
2022/09/21 10:19:40;;;;;;;3.53;1.47;;;;;;;12.10;61.62;96383.72;4974595;28;20260;-82
2022/09/21 10:22:06;;;;;;;3.50;1.50;;;;;;;12.16;62.59;96391.81;4975945;28;20270;-82
2022/09/21 10:24:39;;;;;;;2.97;1.80;;;;;;;12.19;62.56;96386.38;4990222;28;20276;-83
2022/09/21 10:27:16;;;;;;;2.57;1.70;;;;;;;12.18;62.79;96389.06;4998729;28;20302;-83
2022/09/21 10:29:44;;;;;;;2.43;1.87;;;;;;;12.23;60.54;96386.06;4986615;28;20208;-83
2022/09/21 10:32:12;;;;;;;3.40;1.63;;;;;;;12.15;62.37;96390.19;4973017;28;20189;-82
2022/09/21 10:34:40;;;;;;;3.17;1.30;;;;;;;12.49;60.32;96387.16;4996607;28;20196;-83
2022/09/21 10:37:28;;;;;;;3.20;1.40;;;;;;;12.46;59.29;96382.25;4989858;28;20219;-82
2022/09/21 10:39:55;;;;;;;2.63;1.60;;;;;;;12.67;59.76;96377.66;5001994;28;20624;-81
2022/09/21 10:42:21;;;;;;;2.30;1.40;;;;;;;12.90;58.38;96379.97;4989532;28;20198;-83
2022/09/21 10:44:49;;;;;;;4.33;1.63;;;;;;;12.91;56.99;96376.38;4988148;28;20189;-82
2022/09/21 10:47:32;;;;;;;4.27;1.40;;;;;;;12.98;57.45;96373.03;4979361;28;20207;-82
2022/09/21 10:50:00;;;;;;;3.03;1.40;;;;;;;13.02;56.85;96371.81;4997533;28;20226;-83
2022/09/21 10:52:36;;;;;;;4.43;1.57;;;;;;;13.06;57.15;96374.94;4991305;28;20277;-82
2022/09/21 10:55:01;;;;;;;2.07;1.20;;;;;;;13.00;56.06;96371.13;4998158;28;20269;-82
2022/09/21 10:57:28;;;;;;;2.30;1.10;;;;;;;13.11;58.38;96372.75;4990537;28;20207;-82
2022/09/21 10:59:56;;;;;;;4.00;1.40;;;;;;;13.21;58.07;96370.13;4972610;28;20197;-82
2022/09/21 11:02:33;;;;;;;4.00;1.37;;;;;;;13.43;58.02;96380.19;4979662;28;20188;-82
2022/09/21 11:05:05;;;;;;;3.30;1.10;;;;;;;13.40;55.93;96371.81;4988234;28;20196;-82
2022/09/21 11:07:35;;;;;;;1.47;1.27;;;;;;;13.37;55.22;96382.56;4981245;28;20732;-82
2022/09/21 11:10:22;;;;;;;5.43;1.03;;;;;;;13.22;53.23;96367.38;5000739;28;20184;-82
2022/09/21 11:12:54;;;;;;;1.87;1.13;;;;;;;13.51;54.78;96380.28;5001551;28;20214;-82
2022/09/21 11:16:11;;;;;;;2.23;1.40;;;;;;;13.73;55.07;96379.06;5001350;28;20188;-82
2022/09/21 11:18:47;;;;;;;5.73;1.30;;;;;;;13.86;55.21;96376.09;4969078;28;20196;-82
2022/09/21 11:21:50;;;;;;;1.83;1.13;;;;;;;14.22;55.37;96369.09;4989433;28;20196;-82
2022/09/21 11:24:35;;;;;;;2.53;1.37;;;;;;;14.13;54.59;96370.84;4986564;28;20207;-82
2022/09/21 11:27:09;;;;;;;2.10;1.20;;;;;;;14.39;53.49;96376.09;5001577;28;20207;-82
2022/09/21 11:29:59;;;;;;;2.60;1.67;;;;;;;14.26;53.31;96365.22;4998337;28;20615;-82
2022/09/21 11:32:53;;;;;;;2.40;1.10;;;;;;;14.04;53.31;96369.09;4971685;28;20195;-83
2022/09/21 11:35:39;;;;;;;2.30;1.10;;;;;;;13.85;52.74;96361.41;4991413;28;20180;-82
2022/09/21 11:38:22;;;;;;;3.87;1.17;;;;;;;13.65;52.89;96365.91;4998750;28;20523;-83
2022/09/21 11:41:15;;;;;;;1.27;0.90;;;;;;;13.75;52.51;96361.47;4983333;28;20274;-84
2022/09/21 11:44:07;;;;;;;1.77;0.80;;;;;;;13.66;50.73;96354.50;4991712;28;20301;-82
2022/09/21 11:46:44;;;;;;;1.67;0.93;;;;;;;14.08;51.20;96351.34;4987770;28;20294;-83
2022/09/21 11:49:34;;;;;;;2.37;1.10;;;;;;;14.00;51.72;96339.03;4998377;28;20651;-82
2022/09/21 11:52:20;;;;;;;1.90;1.13;;;;;;;14.42;49.94;96344.44;5001164;28;20287;-82
2022/09/21 11:55:13;;;;;;;2.17;1.00;;;;;;;14.54;50.37;96342.44;5001678;28;20218;-84
2022/09/21 11:57:57;;;;;;;1.27;0.97;;;;;;;14.68;49.12;96341.06;5001631;28;20192;-81